Time;durP1;ratioP1;P1;durP2;ratioP2;P2;SDS_P1;SDS_P2;PMS_P1;PMS_P2;Temp;Humidity;BMP_temperature;BMP_pressure;BME280_temperature;BME280_humidity;BME280_pressure;Samples;Min_cycle;Max_cycle;Signal;HPM_P1;HPM_P2
2022/03/27 00:00:05;;;;;;;17.30;5.20;;;;;;;5.87;50.55;100027.98;106251;1271;96654;-66
2022/03/27 00:02:53;;;;;;;14.80;4.60;;;;;;;5.75;50.46;100035.79;106296;1271;96611;-67
2022/03/27 00:05:22;;;;;;;15.30;4.10;;;;;;;5.63;50.32;100042.57;106236;1271;110020;-64
2022/03/27 00:07:50;;;;;;;17.60;4.60;;;;;;;5.54;50.36;100048.16;106181;1271;95014;-65
2022/03/27 00:10:18;;;;;;;15.40;4.50;;;;;;;5.46;50.24;100045.84;106244;1271;108306;-65
2022/03/27 00:12:46;;;;;;;16.50;4.30;;;;;;;5.34;50.09;100047.30;106246;1269;96610;-65
2022/03/27 00:15:14;;;;;;;15.10;3.70;;;;;;;5.26;49.99;100046.87;106198;1271;96459;-65
2022/03/27 00:17:42;;;;;;;12.60;3.50;;;;;;;5.15;50.05;100051.63;106161;1271;110812;-66
2022/03/27 00:20:15;;;;;;;10.40;3.50;;;;;;;5.05;49.86;100055.87;106211;1271;95244;-66
2022/03/27 00:22:43;;;;;;;13.40;3.30;;;;;;;4.98;49.94;100057.85;106285;1271;108472;-65
2022/03/27 00:25:11;;;;;;;11.40;3.10;;;;;;;4.91;49.83;100061.59;106338;1271;96610;-66
2022/03/27 00:27:39;;;;;;;16.50;4.70;;;;;;;4.85;50.01;100062.85;106357;1271;95621;-65
2022/03/27 00:30:09;;;;;;;15.00;4.30;;;;;;;4.80;49.79;100067.56;106290;1271;109905;-65
2022/03/27 00:32:38;;;;;;;14.40;3.50;;;;;;;4.72;49.66;100070.63;106327;1271;96514;-68
2022/03/27 00:35:07;;;;;;;13.40;3.40;;;;;;;4.67;49.80;100071.50;106199;1271;107850;-67
2022/03/27 00:37:35;;;;;;;10.20;3.60;;;;;;;4.66;49.88;100076.29;106317;1271;95200;-70
2022/03/27 00:40:05;;;;;;;11.80;3.80;;;;;;;4.65;49.80;100079.83;106311;1271;96589;-66
2022/03/27 00:42:33;;;;;;;12.30;4.10;;;;;;;4.62;49.90;100084.84;106278;1271;109642;-67
2022/03/27 00:45:02;;;;;;;10.20;3.10;;;;;;;4.56;49.64;100087.14;106220;1271;96378;-67
2022/03/27 00:47:33;;;;;;;12.70;3.50;;;;;;;4.47;49.70;100092.70;106181;1271;108480;-67
2022/03/27 00:50:03;;;;;;;12.40;4.80;;;;;;;4.36;49.47;100093.37;106156;1271;95089;-66
2022/03/27 00:52:31;;;;;;;19.00;6.40;;;;;;;4.22;49.17;100092.39;106210;1271;96520;-67
2022/03/27 00:55:00;;;;;;;16.30;5.20;;;;;;;4.13;49.66;100088.25;106160;1271;111199;-65
2022/03/27 00:57:30;;;;;;;12.10;3.60;;;;;;;4.08;49.57;100085.08;106259;1271;96538;-65
2022/03/27 00:59:58;;;;;;;13.10;3.70;;;;;;;4.01;49.59;100089.48;106166;1271;107326;-66
2022/03/27 01:02:26;;;;;;;11.20;3.30;;;;;;;3.97;49.45;100086.09;106138;1271;96601;-66
2022/03/27 01:04:56;;;;;;;11.60;3.60;;;;;;;3.91;49.39;100088.02;106180;1271;96513;-67
2022/03/27 01:07:24;;;;;;;16.50;4.60;;;;;;;3.80;49.40;100097.82;106150;1271;110742;-67
2022/03/27 01:09:53;;;;;;;12.40;3.30;;;;;;;3.71;49.36;100098.41;106230;1271;94963;-68
2022/03/27 01:12:36;;;;;;;13.60;4.00;;;;;;;3.63;49.42;100093.36;106213;1271;108368;-68
2022/03/27 01:15:21;;;;;;;12.20;3.80;;;;;;;3.59;49.30;100092.79;106237;1271;96533;-66
2022/03/27 01:17:50;;;;;;;29.60;7.10;;;;;;;3.51;48.90;100101.58;106334;1271;96604;-67
2022/03/27 01:20:29;;;;;;;23.90;7.10;;;;;;;3.45;49.35;100106.31;106257;1271;110658;-70
2022/03/27 01:22:58;;;;;;;24.60;7.80;;;;;;;3.40;48.96;100113.63;106258;1271;96531;-67
2022/03/27 01:25:26;;;;;;;17.10;5.20;;;;;;;3.33;48.83;100112.75;106180;1271;106146;-67
2022/03/27 01:27:54;;;;;;;13.00;4.30;;;;;;;3.26;48.95;100108.21;106227;1270;96258;-68
2022/03/27 01:30:22;;;;;;;13.30;3.50;;;;;;;3.18;48.81;100107.02;106145;1271;96713;-68
2022/03/27 01:32:52;;;;;;;9.40;3.00;;;;;;;3.12;48.55;100109.42;106255;1271;110599;-67
2022/03/27 01:35:22;;;;;;;14.90;4.40;;;;;;;3.06;48.86;100109.07;106276;1270;94231;-65
2022/03/27 01:37:51;;;;;;;12.40;3.40;;;;;;;3.01;48.78;100112.52;106246;1271;107505;-64
2022/03/27 01:40:19;;;;;;;9.90;2.90;;;;;;;2.95;48.92;100111.79;106316;1271;96579;-69
2022/03/27 01:42:48;;;;;;;12.60;3.20;;;;;;;2.93;48.99;100118.49;106265;1271;96465;-68
2022/03/27 01:45:17;;;;;;;9.80;3.10;;;;;;;2.90;48.87;100117.52;106281;1271;110297;-65
2022/03/27 01:47:45;;;;;;;10.80;3.60;;;;;;;2.86;48.72;100119.17;106228;1271;96564;-66
2022/03/27 01:50:13;;;;;;;14.30;3.10;;;;;;;2.84;48.57;100121.16;106185;1271;108393;-67
2022/03/27 01:52:42;;;;;;;10.00;2.80;;;;;;;2.79;48.73;100120.56;106236;1271;96586;-67
2022/03/27 01:55:16;;;;;;;10.20;3.00;;;;;;;2.75;48.53;100124.35;106240;1271;94932;-67
2022/03/27 01:57:44;;;;;;;11.10;3.30;;;;;;;2.70;48.45;100124.27;106261;1271;110041;-66
2022/03/27 02:00:14;;;;;;;8.40;2.50;;;;;;;2.65;48.04;100124.05;106266;1271;94266;-68
2022/03/27 02:02:42;;;;;;;10.70;2.70;;;;;;;2.62;48.64;100126.56;106183;1271;107700;-67
2022/03/27 02:05:11;;;;;;;10.10;2.80;;;;;;;2.61;48.57;100138.67;106271;1270;94247;-66
2022/03/27 02:07:45;;;;;;;9.40;3.30;;;;;;;2.60;48.30;100137.30;106268;1271;95237;-65
2022/03/27 02:10:13;;;;;;;9.50;3.20;;;;;;;2.56;48.35;100133.35;106267;1270;110635;-65
2022/03/27 02:12:41;;;;;;;12.50;3.20;;;;;;;2.53;48.26;100139.20;106241;1271;96612;-65
2022/03/27 02:15:10;;;;;;;8.50;2.90;;;;;;;2.50;48.17;100143.82;106220;1271;108352;-68
2022/03/27 02:17:39;;;;;;;13.90;3.50;;;;;;;2.47;48.14;100142.32;106253;1271;96647;-65
2022/03/27 02:20:08;;;;;;;9.40;2.80;;;;;;;2.41;48.32;100146.81;106217;1271;96509;-64
2022/03/27 02:22:36;;;;;;;13.10;3.00;;;;;;;2.37;48.10;100151.83;106234;1271;110078;-65
2022/03/27 02:25:06;;;;;;;11.30;3.10;;;;;;;2.35;48.20;100151.50;106295;1271;96576;-64
2022/03/27 02:27:34;;;;;;;12.10;3.20;;;;;;;2.30;48.18;100146.16;106255;1271;107645;-65
2022/03/27 02:30:03;;;;;;;13.00;2.90;;;;;;;2.29;47.99;100150.59;106265;1271;94269;-65
2022/03/27 02:32:31;;;;;;;10.60;3.20;;;;;;;2.27;48.21;100154.63;106207;1271;96648;-67
2022/03/27 02:34:59;;;;;;;14.20;3.50;;;;;;;2.26;48.22;100159.21;106222;1271;110633;-65
2022/03/27 02:37:28;;;;;;;14.80;3.30;;;;;;;2.22;48.10;100156.67;106175;1271;96618;-64
2022/03/27 02:39:56;;;;;;;9.10;2.90;;;;;;;2.19;48.20;100168.11;106177;1271;108112;-66
2022/03/27 02:42:24;;;;;;;16.40;3.50;;;;;;;2.17;48.17;100166.56;106202;1271;97229;-65
2022/03/27 02:44:53;;;;;;;11.50;3.00;;;;;;;2.15;47.90;100176.58;106198;1271;94215;-65
2022/03/27 02:47:21;;;;;;;14.70;3.60;;;;;;;2.11;48.04;100178.41;106203;1271;110610;-65
2022/03/27 02:49:50;;;;;;;10.20;3.30;;;;;;;2.06;48.02;100182.01;106257;1271;96612;-67
2022/03/27 02:52:18;;;;;;;13.20;3.30;;;;;;;2.03;48.27;100186.11;106221;1270;108332;-64
2022/03/27 02:54:46;;;;;;;12.30;3.40;;;;;;;2.00;48.22;100190.70;106232;1271;96519;-65
2022/03/27 02:57:15;;;;;;;13.20;3.20;;;;;;;1.96;48.04;100187.46;106257;1271;94959;-65
2022/03/27 02:59:44;;;;;;;15.20;4.30;;;;;;;1.91;48.19;100195.07;106226;1271;110578;-66
2022/03/27 03:02:13;;;;;;;14.60;3.80;;;;;;;1.86;48.16;100199.36;106220;1271;95357;-67
2022/03/27 03:04:42;;;;;;;13.30;3.70;;;;;;;1.82;48.18;100201.17;106278;1271;107871;-65
2022/03/27 03:07:10;;;;;;;11.60;2.90;;;;;;;1.80;48.16;100200.52;106227;1271;96464;-66
2022/03/27 03:09:38;;;;;;;11.80;3.60;;;;;;;1.77;48.15;100204.42;106301;1271;96515;-67
2022/03/27 03:12:09;;;;;;;13.10;3.90;;;;;;;1.75;48.08;100201.15;106298;1271;110670;-66
2022/03/27 03:14:37;;;;;;;14.40;3.20;;;;;;;1.72;48.06;100195.08;106327;1271;96419;-66
2022/03/27 03:17:07;;;;;;;11.40;3.30;;;;;;;1.70;48.16;100195.64;106365;1270;107723;-66
2022/03/27 03:19:36;;;;;;;11.40;3.30;;;;;;;1.70;48.14;100201.23;106299;1271;94332;-65
2022/03/27 03:22:07;;;;;;;11.90;3.40;;;;;;;1.68;47.97;100201.95;106329;1271;96631;-67
2022/03/27 03:24:35;;;;;;;14.10;3.80;;;;;;;1.66;48.01;100203.22;106309;1271;109793;-65
2022/03/27 03:27:04;;;;;;;16.90;3.80;;;;;;;1.64;48.26;100206.58;106291;1271;95056;-65
2022/03/27 03:29:33;;;;;;;15.10;4.00;;;;;;;1.57;48.12;100206.89;106165;1271;108356;-65
2022/03/27 03:32:01;;;;;;;7.80;3.10;;;;;;;1.51;48.21;100208.90;106268;1271;96534;-65
2022/03/27 03:34:30;;;;;;;14.20;3.70;;;;;;;1.45;48.33;100205.86;106254;1271;96512;-66
2022/03/27 03:37:01;;;;;;;12.70;4.20;;;;;;;1.42;48.15;100205.20;105901;1271;584518;-65
2022/03/27 03:39:29;;;;;;;14.00;3.40;;;;;;;1.40;48.08;100210.32;106240;1271;96689;-66
2022/03/27 03:41:57;;;;;;;13.60;3.80;;;;;;;1.38;48.13;100211.40;106206;1271;108182;-66
2022/03/27 03:44:29;;;;;;;13.70;3.30;;;;;;;1.35;48.17;100219.48;106186;1271;94306;-66
2022/03/27 03:46:58;;;;;;;14.80;3.80;;;;;;;1.31;47.94;100220.59;106211;1271;94324;-66
2022/03/27 03:49:26;;;;;;;10.60;3.60;;;;;;;1.27;48.09;100229.56;106207;1271;110584;-65
2022/03/27 03:51:54;;;;;;;15.20;4.00;;;;;;;1.24;48.09;100233.80;106217;1271;95618;-66
2022/03/27 03:54:22;;;;;;;11.70;4.00;;;;;;;1.21;48.00;100233.70;106216;1271;108302;-66
2022/03/27 03:56:51;;;;;;;11.80;3.30;;;;;;;1.15;47.93;100238.14;106336;1271;97193;-67
2022/03/27 03:59:20;;;;;;;11.10;3.50;;;;;;;1.11;48.08;100234.52;106404;1271;96628;-65
2022/03/27 04:01:57;;;;;;;8.20;3.10;;;;;;;1.08;47.91;100236.84;106308;1271;110680;-64
2022/03/27 04:04:28;;;;;;;13.70;3.20;;;;;;;1.04;47.98;100237.59;106353;1269;95496;-66
2022/03/27 04:06:56;;;;;;;10.80;3.30;;;;;;;1.02;48.00;100238.50;106299;1271;107730;-65
2022/03/27 04:09:26;;;;;;;13.80;3.70;;;;;;;0.96;47.89;100240.52;106291;1271;96501;-64
2022/03/27 04:11:54;;;;;;;13.30;3.50;;;;;;;0.90;47.98;100246.35;106326;1271;94224;-65
2022/03/27 04:14:23;;;;;;;13.30;3.60;;;;;;;0.86;47.83;100249.90;106298;1271;110682;-66
2022/03/27 04:16:51;;;;;;;11.80;3.30;;;;;;;0.83;47.94;100253.96;106383;1271;94228;-66
2022/03/27 04:19:20;;;;;;;12.70;3.60;;;;;;;0.82;47.92;100258.36;106275;1270;107683;-65
2022/03/27 04:21:48;;;;;;;12.90;3.70;;;;;;;0.77;48.05;100269.59;106214;1271;96543;-65
2022/03/27 04:24:16;;;;;;;14.50;4.20;;;;;;;0.73;47.95;100272.25;106121;1271;96516;-67
2022/03/27 04:26:44;;;;;;;11.60;4.00;;;;;;;0.71;47.92;100275.60;106186;1271;110684;-66
2022/03/27 04:29:13;;;;;;;11.10;3.10;;;;;;;0.71;48.01;100278.75;106211;1271;94013;-67
2022/03/27 04:31:42;;;;;;;11.50;3.20;;;;;;;0.70;48.01;100279.98;106206;1270;108383;-66
2022/03/27 04:34:11;;;;;;;16.40;3.50;;;;;;;0.69;47.91;100284.88;106187;1271;95155;-65
2022/03/27 04:36:40;;;;;;;16.30;5.10;;;;;;;0.67;47.92;100283.86;106226;1270;94320;-66
2022/03/27 04:39:09;;;;;;;12.90;3.30;;;;;;;0.64;47.98;100282.14;106193;1271;110013;-65
2022/03/27 04:41:38;;;;;;;15.80;3.70;;;;;;;0.63;47.98;100285.83;106214;1271;96383;-66
2022/03/27 04:44:07;;;;;;;16.90;3.70;;;;;;;0.62;48.08;100288.80;106182;1271;108793;-65
2022/03/27 04:46:36;;;;;;;11.20;3.20;;;;;;;0.61;48.06;100285.49;106353;1271;96513;-66
2022/03/27 04:49:04;;;;;;;14.30;3.60;;;;;;;0.61;48.07;100285.32;106347;1271;96512;-66
2022/03/27 04:51:33;;;;;;;9.30;2.80;;;;;;;0.61;48.12;100288.65;106191;1271;111746;-66
2022/03/27 04:54:01;;;;;;;13.00;3.50;;;;;;;0.61;48.12;100293.53;106197;1271;96532;-66
2022/03/27 04:56:31;;;;;;;12.90;3.60;;;;;;;0.60;48.07;100293.02;106192;1271;108379;-65
2022/03/27 04:58:59;;;;;;;13.70;3.20;;;;;;;0.62;48.00;100301.20;106071;1271;96489;-66
2022/03/27 05:01:27;;;;;;;14.40;3.00;;;;;;;0.63;48.08;100298.73;106229;1271;96629;-67
2022/03/27 05:03:56;;;;;;;12.70;3.40;;;;;;;0.66;48.26;100306.73;106209;1270;109639;-66
2022/03/27 05:06:24;;;;;;;13.80;3.80;;;;;;;0.70;48.20;100298.83;106108;1271;96536;-66
2022/03/27 05:08:58;;;;;;;14.10;3.30;;;;;;;0.73;48.16;100298.27;106223;1271;108364;-70
2022/03/27 05:11:30;;;;;;;13.70;3.10;;;;;;;0.79;48.16;100303.96;106361;1271;95271;-67
2022/03/27 05:13:58;;;;;;;12.00;3.00;;;;;;;0.84;48.28;100300.75;106239;1271;94979;-66
2022/03/27 05:16:26;;;;;;;15.60;3.40;;;;;;;0.89;48.31;100305.41;106052;1274;110605;-64
2022/03/27 05:18:55;;;;;;;11.00;3.40;;;;;;;0.94;48.21;100304.48;106115;1271;94368;-65
2022/03/27 05:21:23;;;;;;;15.80;3.80;;;;;;;0.99;48.25;100304.94;106146;1270;107732;-65
2022/03/27 05:23:52;;;;;;;14.10;3.20;;;;;;;1.04;48.59;100306.94;106353;1270;97338;-65
2022/03/27 05:26:20;;;;;;;12.40;3.60;;;;;;;1.09;48.32;100310.38;106352;1271;96628;-65
2022/03/27 05:28:48;;;;;;;16.10;4.00;;;;;;;1.13;48.29;100312.25;106236;1270;109497;-65
2022/03/27 05:31:17;;;;;;;16.10;3.90;;;;;;;1.15;48.25;100315.35;106276;1270;96507;-66
2022/03/27 05:33:45;;;;;;;14.80;4.30;;;;;;;1.19;48.42;100318.64;106298;1271;107538;-67
2022/03/27 05:36:14;;;;;;;12.90;3.80;;;;;;;1.22;48.44;100317.20;106176;1271;95023;-65
2022/03/27 05:38:42;;;;;;;15.30;3.90;;;;;;;1.24;48.51;100321.52;106268;1271;95227;-67
2022/03/27 05:41:10;;;;;;;12.50;3.20;;;;;;;1.28;48.37;100327.08;106170;1271;110682;-66
2022/03/27 05:43:39;;;;;;;15.00;3.90;;;;;;;1.32;48.33;100332.59;106217;1271;96588;-66
2022/03/27 05:46:08;;;;;;;14.80;4.10;;;;;;;1.36;48.51;100344.79;106302;1269;107576;-67
2022/03/27 05:48:36;;;;;;;16.10;3.90;;;;;;;1.42;48.53;100347.31;106173;1271;95050;-67
2022/03/27 05:51:04;;;;;;;19.40;4.90;;;;;;;1.45;48.52;100349.71;106194;1271;96609;-65
2022/03/27 05:53:32;;;;;;;13.80;4.60;;;;;;;1.47;48.53;100350.73;106238;1271;110052;-66
2022/03/27 05:56:01;;;;;;;14.40;4.20;;;;;;;1.48;48.52;100351.41;106345;1271;94321;-66
2022/03/27 05:58:29;;;;;;;15.10;4.10;;;;;;;1.48;48.72;100356.31;106293;1271;108211;-67
2022/03/27 06:00:58;;;;;;;15.70;4.60;;;;;;;1.51;48.63;100355.58;106204;1271;95092;-67
2022/03/27 06:03:26;;;;;;;17.30;4.20;;;;;;;1.51;48.51;100356.45;106319;1270;96956;-66
2022/03/27 06:05:55;;;;;;;10.60;3.30;;;;;;;1.55;48.49;100360.94;106292;1270;110742;-67
2022/03/27 06:08:23;;;;;;;13.60;3.60;;;;;;;1.57;48.60;100363.52;106202;1271;95372;-68
2022/03/27 06:10:51;;;;;;;15.20;5.20;;;;;;;1.59;48.60;100363.86;106189;1269;108435;-65
2022/03/27 06:13:19;;;;;;;12.90;3.30;;;;;;;1.59;48.76;100363.33;106288;1271;96619;-67
2022/03/27 06:15:48;;;;;;;16.50;3.40;;;;;;;1.61;48.68;100362.25;106243;1271;97201;-66
2022/03/27 06:18:16;;;;;;;13.90;3.20;;;;;;;1.63;48.66;100361.68;106277;1271;110669;-66
2022/03/27 06:20:45;;;;;;;12.60;3.10;;;;;;;1.65;48.61;100370.22;106296;1271;97595;-65
2022/03/27 06:23:13;;;;;;;10.80;3.20;;;;;;;1.69;48.61;100371.05;106187;1271;108389;-67
2022/03/27 06:25:41;;;;;;;14.20;3.20;;;;;;;1.72;48.64;100369.25;106282;1271;96703;-67
2022/03/27 06:28:10;;;;;;;18.80;3.80;;;;;;;1.77;48.69;100372.31;106325;1271;96801;-66
2022/03/27 06:30:38;;;;;;;10.00;3.00;;;;;;;1.82;48.62;100372.09;106276;1269;110557;-66
2022/03/27 06:33:06;;;;;;;10.90;3.40;;;;;;;1.84;48.79;100370.47;106279;1271;96532;-66
2022/03/27 06:35:35;;;;;;;12.50;3.30;;;;;;;1.87;48.72;100375.14;106260;1271;107366;-66
2022/03/27 06:38:03;;;;;;;16.40;3.80;;;;;;;1.92;48.58;100380.66;106162;1271;96641;-66
2022/03/27 06:40:32;;;;;;;9.60;3.10;;;;;;;1.99;48.62;100386.52;106184;1270;96485;-66
2022/03/27 06:43:00;;;;;;;11.00;2.70;;;;;;;2.04;48.59;100392.55;106258;1270;111143;-66
2022/03/27 06:45:28;;;;;;;10.50;4.10;;;;;;;2.07;48.71;100398.79;106211;1271;96534;-67
2022/03/27 06:47:56;;;;;;;13.10;3.60;;;;;;;2.14;48.60;100402.89;106172;1271;108304;-66
2022/03/27 06:50:25;;;;;;;13.50;3.90;;;;;;;2.21;48.50;100403.29;106149;1271;96622;-63
2022/03/27 06:52:54;;;;;;;10.80;2.90;;;;;;;2.29;48.79;100408.77;106246;1270;96598;-66
2022/03/27 06:55:24;;;;;;;9.50;3.10;;;;;;;2.36;48.68;100400.93;106282;1271;110646;-65
2022/03/27 06:57:52;;;;;;;9.80;3.20;;;;;;;2.44;48.72;100404.99;106293;1271;96593;-65
2022/03/27 07:03:09;;;;;;;7.00;2.60;;;;;;;2.56;48.65;100414.95;106204;1271;96608;-65
2022/03/27 07:05:42;;;;;;;14.70;3.60;;;;;;;2.59;48.49;100418.92;106295;1270;95669;-66
2022/03/27 07:08:13;;;;;;;8.60;3.30;;;;;;;2.65;48.50;100418.80;106192;1271;110827;-65
2022/03/27 07:10:43;;;;;;;8.30;3.70;;;;;;;2.71;48.83;100420.27;106248;1270;94641;-69
2022/03/27 07:13:14;;;;;;;13.00;3.70;;;;;;;2.76;48.62;100417.91;106311;1270;107928;-68
2022/03/27 07:15:44;;;;;;;10.20;2.80;;;;;;;2.81;48.33;100414.66;106310;1271;96499;-69
2022/03/27 07:18:16;;;;;;;7.60;2.60;;;;;;;2.87;48.74;100414.55;106227;1271;95301;-66
2022/03/27 07:20:46;;;;;;;8.80;2.50;;;;;;;2.94;47.86;100418.96;106230;1271;111384;-66
2022/03/27 07:23:18;;;;;;;11.00;3.10;;;;;;;2.97;48.06;100411.38;106373;1270;96588;-65
2022/03/27 07:25:49;;;;;;;10.40;2.80;;;;;;;3.02;48.25;100414.09;106279;1271;108476;-66
2022/03/27 07:28:19;;;;;;;14.80;3.20;;;;;;;3.04;47.79;100415.63;106360;1271;96512;-66
2022/03/27 07:30:48;;;;;;;12.00;3.10;;;;;;;3.10;48.03;100414.80;106333;1270;94266;-65
2022/03/27 07:33:19;;;;;;;11.90;3.00;;;;;;;3.16;48.33;100412.92;106130;1273;109003;-66
2022/03/27 07:35:47;;;;;;;8.00;2.70;;;;;;;3.28;48.21;100408.10;106286;1271;96504;-68
2022/03/27 07:38:16;;;;;;;9.10;3.20;;;;;;;3.46;48.50;100413.34;106123;1271;108271;-66
2022/03/27 07:40:45;;;;;;;9.70;3.40;;;;;;;3.72;48.62;100416.80;106200;1271;96591;-67
2022/03/27 07:43:13;;;;;;;11.00;3.20;;;;;;;4.22;48.65;100413.36;106253;1271;96527;-66
2022/03/27 07:45:42;;;;;;;6.40;2.60;;;;;;;5.27;48.03;100410.34;106255;1271;110656;-67
2022/03/27 07:48:10;;;;;;;7.80;2.60;;;;;;;6.45;48.24;100409.50;106153;1271;94950;-68
2022/03/27 07:50:38;;;;;;;11.20;3.10;;;;;;;7.49;47.84;100401.39;106241;1270;108246;-70
2022/03/27 07:53:07;;;;;;;9.70;3.10;;;;;;;8.48;47.57;100400.95;106292;1271;95704;-68
2022/03/27 07:55:37;;;;;;;9.00;2.70;;;;;;;9.41;47.43;100396.86;106279;1271;94951;-69
2022/03/27 07:58:05;;;;;;;9.10;3.20;;;;;;;10.21;46.45;100404.75;106305;1271;110016;-67
2022/03/27 08:00:33;;;;;;;8.90;3.60;;;;;;;10.80;47.67;100404.27;106107;1271;94958;-68
2022/03/27 08:03:01;;;;;;;11.70;3.00;;;;;;;11.49;47.60;100396.00;106250;1271;107734;-68
2022/03/27 08:05:30;;;;;;;13.80;3.20;;;;;;;12.20;47.60;100393.59;106193;1271;95217;-68
2022/03/27 08:07:59;;;;;;;11.50;3.80;;;;;;;13.32;47.30;100386.58;106435;1270;94946;-69
2022/03/27 08:10:27;;;;;;;10.80;3.60;;;;;;;13.97;46.65;100386.34;106347;1270;109131;-74
2022/03/27 08:12:56;;;;;;;13.70;4.40;;;;;;;14.52;47.47;100386.09;106307;1270;96534;-70
2022/03/27 08:15:24;;;;;;;10.40;3.30;;;;;;;15.46;48.00;100388.54;106243;1271;107736;-71
2022/03/27 08:17:53;;;;;;;11.40;3.30;;;;;;;16.44;47.14;100393.00;106243;1271;96410;-68
2022/03/27 08:20:26;;;;;;;8.60;3.10;;;;;;;16.84;46.67;100397.81;106305;1270;95067;-69
2022/03/27 08:22:55;;;;;;;9.30;2.90;;;;;;;17.08;47.03;100399.04;106326;1271;110755;-72
2022/03/27 08:28:11;;;;;;;12.40;3.50;;;;;;;18.45;44.58;100394.94;106200;1269;107906;-69
2022/03/27 08:30:40;;;;;;;7.50;2.80;;;;;;;18.76;46.13;100395.37;106114;1271;95345;-71
2022/03/27 08:33:09;;;;;;;6.80;2.50;;;;;;;19.27;45.65;100400.52;106286;1271;96598;-71
2022/03/27 08:35:41;;;;;;;6.60;2.20;;;;;;;18.99;43.40;100404.63;106280;1271;110068;-71
2022/03/27 08:38:14;;;;;;;6.60;2.60;;;;;;;18.76;44.53;100407.95;106736;1270;94980;-68
2022/03/27 08:40:45;;;;;;;6.10;2.50;;;;;;;19.15;44.66;100412.73;106723;1270;107817;-68
2022/03/27 08:43:16;;;;;;;9.40;3.10;;;;;;;19.38;44.20;100416.55;106139;1271;95338;-68
2022/03/27 08:45:44;;;;;;;7.00;3.00;;;;;;;19.40;43.35;100409.65;108153;1270;94931;-68
2022/03/27 08:48:12;;;;;;;12.10;3.20;;;;;;;19.55;43.90;100408.17;108094;1269;110047;-69
2022/03/27 08:50:58;;;;;;;11.60;3.90;;;;;;;20.17;44.65;100399.02;107094;1271;97052;-70
2022/03/27 08:53:48;;;;;;;8.10;3.00;;;;;;;20.96;44.35;100396.27;106284;1271;106719;-71
2022/03/27 08:56:18;;;;;;;9.10;3.50;;;;;;;21.59;43.39;100389.99;106272;1270;94772;-71
2022/03/27 08:58:47;;;;;;;5.90;2.90;;;;;;;21.50;42.11;100391.75;106176;1271;94654;-71
2022/03/27 09:01:17;;;;;;;5.20;2.40;;;;;;;21.01;40.41;100397.16;106303;1270;109940;-69
2022/03/27 09:03:46;;;;;;;7.20;2.20;;;;;;;20.43;39.41;100396.10;106204;1271;96571;-71
2022/03/27 09:06:14;;;;;;;5.30;2.50;;;;;;;19.62;39.51;100402.19;106252;1268;107741;-68
2022/03/27 09:08:42;;;;;;;7.80;3.00;;;;;;;19.15;40.20;100402.48;106224;1268;96563;-69
2022/03/27 09:11:18;;;;;;;6.30;2.50;;;;;;;19.13;40.13;100401.73;106263;1271;97318;-70
2022/03/27 09:13:48;;;;;;;15.20;5.10;;;;;;;19.14;39.86;100401.11;106380;1270;110682;-69
2022/03/27 09:16:17;;;;;;;10.20;3.50;;;;;;;19.33;40.16;100398.27;106321;1270;96382;-70
2022/03/27 09:18:48;;;;;;;9.70;3.50;;;;;;;19.47;38.42;100405.42;106254;1271;107659;-69
2022/03/27 09:21:20;;;;;;;7.60;3.00;;;;;;;19.05;37.26;100399.74;106245;1271;94737;-68
2022/03/27 09:24:02;;;;;;;8.00;3.40;;;;;;;18.86;37.46;100398.14;106378;1271;96601;-70
2022/03/27 09:26:32;;;;;;;13.30;4.10;;;;;;;18.45;35.05;100400.55;106426;1270;110581;-69
2022/03/27 09:29:11;;;;;;;8.50;3.00;;;;;;;17.34;35.04;100403.36;106302;1269;96587;-72
2022/03/27 09:31:39;;;;;;;6.60;2.90;;;;;;;16.51;36.37;100403.55;106295;1271;107699;-70
2022/03/27 09:34:07;;;;;;;10.50;3.10;;;;;;;16.56;36.52;100407.13;106309;1271;94724;-68
2022/03/27 09:36:42;;;;;;;6.10;2.60;;;;;;;16.89;36.17;100399.61;106199;1271;94386;-68
2022/03/27 09:39:23;;;;;;;7.80;2.50;;;;;;;16.99;36.20;100395.45;106258;1271;112555;-67
2022/03/27 09:41:59;;;;;;;7.50;2.80;;;;;;;17.19;36.52;100395.99;106243;1271;96818;-69
2022/03/27 09:44:29;;;;;;;8.30;2.70;;;;;;;17.31;36.08;100390.98;106305;1271;108126;-68
2022/03/27 09:47:00;;;;;;;5.40;2.40;;;;;;;17.53;36.59;100400.14;106273;1271;94765;-68
2022/03/27 09:49:34;;;;;;;7.30;2.50;;;;;;;17.64;33.54;100398.92;106216;1271;95753;-67
2022/03/27 09:52:08;;;;;;;7.00;2.60;;;;;;;17.36;33.98;100390.20;106195;1271;109675;-70
2022/03/27 09:54:51;;;;;;;7.00;2.80;;;;;;;17.00;34.86;100393.38;106120;1271;95174;-70
2022/03/27 09:57:26;;;;;;;9.80;3.10;;;;;;;16.54;33.79;100389.39;106299;1271;106693;-69
2022/03/27 09:59:58;;;;;;;7.80;2.60;;;;;;;15.56;33.29;100383.69;106229;1271;95468;-70
2022/03/27 10:02:28;;;;;;;30.60;17.30;;;;;;;14.68;33.00;100384.86;106252;1271;96485;-71
2022/03/27 10:05:05;;;;;;;10.10;3.70;;;;;;;14.15;33.95;100383.75;106191;1271;110066;-72
2022/03/27 10:07:34;;;;;;;5.90;2.60;;;;;;;13.88;34.15;100378.75;106257;1271;94453;-70
2022/03/27 10:10:06;;;;;;;6.60;2.50;;;;;;;13.78;33.71;100374.94;106237;1271;108878;-72
2022/03/27 10:12:37;;;;;;;7.30;2.20;;;;;;;13.63;33.69;100373.41;106263;1271;96512;-69
2022/03/27 10:15:12;;;;;;;7.50;2.60;;;;;;;13.39;33.68;100373.47;106298;1271;96501;-70
2022/03/27 10:17:46;;;;;;;12.10;4.10;;;;;;;13.10;32.80;100368.52;106107;1271;109979;-71
2022/03/27 10:20:18;;;;;;;6.00;2.10;;;;;;;12.78;29.83;100362.83;106346;1270;96498;-70
2022/03/27 10:23:16;;;;;;;6.30;2.10;;;;;;;12.07;31.47;100363.76;106339;1271;107705;-70
2022/03/27 10:25:48;;;;;;;5.60;2.00;;;;;;;11.52;32.16;100370.77;106360;1271;96624;-70
2022/03/27 10:28:21;;;;;;;7.60;2.20;;;;;;;11.34;32.81;100372.66;106239;1271;94557;-70
2022/03/27 10:30:50;;;;;;;7.90;2.10;;;;;;;11.10;32.66;100365.78;106068;1271;110071;-68
2022/03/27 10:33:24;;;;;;;6.30;2.00;;;;;;;10.85;31.96;100373.34;106234;1271;94497;-69
2022/03/27 10:36:02;;;;;;;6.20;2.10;;;;;;;10.59;32.17;100370.06;106185;1271;108435;-69
2022/03/27 10:38:42;;;;;;;5.40;1.90;;;;;;;10.39;32.13;100370.52;106201;1271;96610;-71
2022/03/27 10:41:17;;;;;;;5.20;2.00;;;;;;;10.19;30.78;100375.05;106258;1271;96165;-69
2022/03/27 10:44:06;;;;;;;6.30;1.80;;;;;;;9.92;31.04;100383.13;106318;1271;110673;-70
2022/03/27 10:46:40;;;;;;;5.50;2.10;;;;;;;9.51;31.38;100379.42;106278;1270;97114;-69
2022/03/27 10:49:13;;;;;;;8.50;2.90;;;;;;;9.36;31.38;100379.93;106250;1271;108745;-70
2022/03/27 10:51:44;;;;;;;6.20;2.30;;;;;;;9.26;30.91;100374.88;106297;1271;95616;-69
2022/03/27 10:54:14;;;;;;;7.80;2.50;;;;;;;9.15;29.39;100379.48;106142;1271;96609;-70
2022/03/27 10:56:50;;;;;;;9.70;2.70;;;;;;;9.05;30.03;100387.16;106192;1270;111217;-67
2022/03/27 10:59:27;;;;;;;5.70;2.30;;;;;;;8.95;30.52;100389.78;106228;1271;94294;-69
2022/03/27 11:02:02;;;;;;;10.10;1.80;;;;;;;8.93;30.66;100389.65;106167;1270;109458;-69
2022/03/27 11:04:41;;;;;;;7.40;2.00;;;;;;;8.95;30.52;100385.49;106174;1271;96634;-69
2022/03/27 11:07:15;;;;;;;7.80;1.80;;;;;;;8.95;30.33;100381.42;105979;1271;94911;-69
2022/03/27 11:09:47;;;;;;;;;;;;;;;8.92;31.02;100378.70;106006;1271;110811;-68
2022/03/27 11:12:31;;;;;;;7.30;2.10;;;;;;;8.91;31.05;100370.66;106748;1271;96537;-69
2022/03/27 11:15:05;;;;;;;5.50;1.80;;;;;;;9.05;30.99;100370.02;106076;1271;107817;-69
2022/03/27 11:17:38;;;;;;;14.90;5.00;;;;;;;9.27;30.55;100367.25;106152;1271;97548;-69
2022/03/27 11:20:22;;;;;;;6.10;2.30;;;;;;;9.37;30.77;100366.58;106101;1271;96524;-69
2022/03/27 11:22:54;;;;;;;3.20;1.40;;;;;;;9.47;30.41;100368.06;106021;1271;110056;-69
2022/03/27 11:25:38;;;;;;;4.20;1.60;;;;;;;9.50;30.22;100359.45;106225;1271;95173;-69
2022/03/27 11:28:13;;;;;;;4.60;1.70;;;;;;;9.42;30.74;100352.20;106118;1271;107448;-69
2022/03/27 11:30:48;;;;;;;6.50;1.70;;;;;;;9.39;30.55;100338.89;106129;1271;96417;-67
2022/03/27 11:33:24;;;;;;;6.70;2.00;;;;;;;9.47;30.79;100328.59;106262;1271;97734;-69